createdAt,value
2024-05-09T00:01:30.626Z,17.33
2024-05-09T00:04:01.332Z,17.90
2024-05-09T00:06:32.000Z,18.13
2024-05-09T00:09:05.263Z,16.52
2024-05-09T00:11:35.951Z,18.33
2024-05-09T00:14:06.655Z,17.10
2024-05-09T00:16:37.310Z,18.42
2024-05-09T00:19:08.012Z,18.47
2024-05-09T00:21:38.678Z,17.52
2024-05-09T00:24:12.101Z,21.27
2024-05-09T00:26:42.909Z,21.92
2024-05-09T00:29:13.883Z,18.50
2024-05-09T00:31:44.552Z,18.65
2024-05-09T00:34:15.215Z,19.08
2024-05-09T00:36:45.887Z,17.97
2024-05-09T00:39:19.147Z,20.70
2024-05-09T00:41:49.748Z,16.95
2024-05-09T00:44:20.418Z,18.10
2024-05-09T00:46:54.648Z,18.08
2024-05-09T00:49:25.505Z,17.85
2024-05-09T00:51:57.359Z,16.27
2024-05-09T00:54:30.813Z,17.75
2024-05-09T00:57:01.517Z,19.88
2024-05-09T00:59:33.608Z,17.70
2024-05-09T01:02:04.361Z,19.15
2024-05-09T01:04:35.069Z,16.47
2024-05-09T01:07:05.644Z,16.80
2024-05-09T01:09:38.925Z,16.27
2024-05-09T01:12:09.839Z,17.50
2024-05-09T01:14:40.634Z,15.95
2024-05-09T01:17:11.299Z,15.32
2024-05-09T01:19:42.094Z,17.93
2024-05-09T01:22:12.774Z,17.67
2024-05-09T01:24:46.004Z,18.95
2024-05-09T01:27:16.608Z,16.13
2024-05-09T01:29:47.133Z,19.42
2024-05-09T01:32:17.791Z,18.50
2024-05-09T01:34:48.489Z,16.40
2024-05-09T01:37:19.119Z,16.60
2024-05-09T01:39:52.390Z,17.10
2024-05-09T01:42:23.007Z,18.92
2024-05-09T01:44:53.665Z,16.00
2024-05-09T01:47:24.396Z,19.13
2024-05-09T01:49:55.179Z,18.30
2024-05-09T01:52:25.770Z,17.40
2024-05-09T01:55:01.981Z,19.02
2024-05-09T01:57:33.926Z,17.90
2024-05-09T02:00:07.637Z,19.88
2024-05-09T02:02:40.973Z,16.88
2024-05-09T02:05:12.159Z,18.85
2024-05-09T02:07:42.908Z,17.50
2024-05-09T02:10:20.566Z,18.30
2024-05-09T02:12:56.778Z,17.73
2024-05-09T02:15:27.422Z,18.67
2024-05-09T02:17:58.099Z,17.95
2024-05-09T02:20:34.218Z,17.33
2024-05-09T02:23:07.514Z,18.30
2024-05-09T02:25:41.077Z,18.23
2024-05-09T02:28:11.872Z,17.92
2024-05-09T02:30:42.810Z,17.63
2024-05-09T02:33:14.637Z,16.27
2024-05-09T02:35:45.776Z,17.25
2024-05-09T02:38:13.896Z,18.03
2024-05-09T02:40:47.244Z,18.42
2024-05-09T02:43:17.825Z,17.88
2024-05-09T02:45:45.744Z,18.17
2024-05-09T02:48:16.619Z,17.55
2024-05-09T02:50:45.067Z,17.55
2024-05-09T02:53:15.995Z,18.70
2024-05-09T02:55:46.951Z,16.80
2024-05-09T02:58:17.529Z,15.93
2024-05-09T03:00:45.457Z,15.77
2024-05-09T03:03:16.457Z,14.45
2024-05-09T03:05:45.388Z,14.75
2024-05-09T03:08:16.267Z,16.20
2024-05-09T03:10:47.004Z,16.77
2024-05-09T03:13:17.704Z,13.97
2024-05-09T03:15:45.876Z,14.60
2024-05-09T03:18:17.199Z,13.68
2024-05-09T03:20:45.210Z,14.48
2024-05-09T03:23:16.009Z,14.35
2024-05-09T03:25:46.744Z,13.18
2024-05-09T03:28:17.381Z,15.48
2024-05-09T03:30:45.288Z,16.02
2024-05-09T03:33:20.571Z,16.52
2024-05-09T03:35:49.673Z,14.98
2024-05-09T03:38:20.427Z,14.52
2024-05-09T03:40:53.835Z,20.65
2024-05-09T03:43:24.449Z,16.60
2024-05-09T03:45:52.316Z,16.77
2024-05-09T03:48:23.099Z,17.98
2024-05-09T03:50:51.193Z,17.60
2024-05-09T03:53:22.982Z,16.55
2024-05-09T03:55:53.654Z,18.52
2024-05-09T03:58:24.240Z,18.13
2024-05-09T04:00:52.228Z,18.33
2024-05-09T04:03:23.149Z,16.55
2024-05-09T04:05:51.450Z,19.50
2024-05-09T04:08:22.138Z,17.58
2024-05-09T04:10:50.096Z,19.97
2024-05-09T04:13:23.282Z,15.93
2024-05-09T04:15:51.182Z,20.02
2024-05-09T04:18:21.865Z,18.77
2024-05-09T04:20:49.820Z,20.13
2024-05-09T04:23:20.574Z,18.13
2024-05-09T04:25:48.538Z,16.83
2024-05-09T04:28:19.161Z,17.75
2024-05-09T04:30:49.880Z,18.20
2024-05-09T04:33:21.510Z,15.63
2024-05-09T04:35:49.698Z,17.60
2024-05-09T04:38:20.238Z,16.98
2024-05-09T04:40:48.203Z,19.25
2024-05-09T04:43:20.571Z,17.67
2024-05-09T04:45:51.286Z,15.98
2024-05-09T04:48:22.069Z,17.92
2024-05-09T04:50:50.125Z,18.70
2024-05-09T04:53:20.754Z,18.20
2024-05-09T04:55:48.760Z,18.42
2024-05-09T04:58:19.335Z,17.50
2024-05-09T05:00:47.274Z,16.73
2024-05-09T05:03:20.881Z,18.52
2024-05-09T05:05:49.035Z,17.83
2024-05-09T05:08:20.291Z,18.08
2024-05-09T05:10:49.316Z,17.80
2024-05-09T05:13:23.861Z,17.13
2024-05-09T05:15:53.795Z,19.33
2024-05-09T05:18:27.937Z,17.67
2024-05-09T05:20:56.838Z,19.13
2024-05-09T05:23:27.678Z,16.05
2024-05-09T05:25:55.985Z,16.53
2024-05-09T05:28:26.738Z,15.40
2024-05-09T05:30:54.642Z,16.33
2024-05-09T05:33:28.336Z,15.23
2024-05-09T05:35:57.329Z,17.85
2024-05-09T05:38:28.627Z,17.67
2024-05-09T05:40:56.965Z,19.10
2024-05-09T05:43:27.649Z,15.93
2024-05-09T05:45:55.522Z,17.20
2024-05-09T05:48:28.826Z,17.50
2024-05-09T05:50:56.853Z,16.80
2024-05-09T05:53:30.033Z,16.98
2024-05-09T05:55:58.021Z,17.37
2024-05-09T05:58:28.552Z,19.05
2024-05-09T06:00:56.734Z,17.42
2024-05-09T06:03:30.671Z,17.02
2024-05-09T06:05:59.793Z,16.27
2024-05-09T06:08:33.006Z,19.27
2024-05-09T06:11:01.062Z,19.13
2024-05-09T06:13:31.639Z,16.52
2024-05-09T06:16:00.856Z,16.38
2024-05-09T06:18:34.263Z,17.35
2024-05-09T06:21:02.224Z,20.65
2024-05-09T06:23:32.970Z,17.70
2024-05-09T06:26:00.969Z,17.70
2024-05-09T06:28:31.590Z,18.90
2024-05-09T06:30:59.449Z,16.70
2024-05-09T06:33:30.361Z,20.20
2024-05-09T06:36:01.193Z,19.83
2024-05-09T06:38:32.909Z,17.35
2024-05-09T06:41:00.916Z,18.80
2024-05-09T06:43:31.464Z,18.08
2024-05-09T06:45:59.388Z,17.65
2024-05-09T06:48:30.135Z,19.40
2024-05-09T06:51:01.041Z,18.00
2024-05-09T06:53:31.739Z,18.70
2024-05-09T06:56:01.630Z,19.88
2024-05-09T06:58:32.262Z,17.83
2024-05-09T07:01:02.231Z,18.45
2024-05-09T07:03:33.145Z,17.70
2024-05-09T07:06:05.702Z,17.52
2024-05-09T07:08:36.456Z,18.35
2024-05-09T07:11:04.607Z,18.70
2024-05-09T07:13:35.281Z,18.70
2024-05-09T07:16:03.506Z,21.37
2024-05-09T07:18:34.537Z,21.10
2024-05-09T07:21:02.684Z,20.38
2024-05-09T07:23:36.094Z,20.42
2024-05-09T07:26:04.160Z,17.58
2024-05-09T07:28:34.721Z,19.02
2024-05-09T07:31:02.630Z,20.10
2024-05-09T07:33:33.305Z,20.67
2024-05-09T07:36:01.358Z,18.40
2024-05-09T07:38:31.947Z,18.67
2024-05-09T07:41:02.830Z,17.73
2024-05-09T07:43:33.442Z,19.73
2024-05-09T07:46:48.251Z,21.08
2024-05-09T07:54:00.545Z,22.53
2024-05-09T07:56:32.188Z,20.15
2024-05-09T07:59:02.927Z,20.17
2024-05-09T08:01:30.931Z,17.52
2024-05-09T08:04:01.854Z,19.23
2024-05-09T08:06:29.946Z,19.88
2024-05-09T08:09:05.435Z,19.75
2024-05-09T08:11:38.804Z,19.23
2024-05-09T08:14:09.406Z,17.00
2024-05-09T08:16:37.372Z,19.00
2024-05-09T08:19:07.969Z,20.08
2024-05-09T08:21:35.928Z,18.67
2024-05-09T08:24:06.572Z,17.50
2024-05-09T08:26:34.562Z,18.15
2024-05-09T08:29:07.916Z,19.95
2024-05-09T08:31:38.324Z,17.98
2024-05-09T08:34:09.726Z,20.70
2024-05-09T08:36:37.768Z,17.00
2024-05-09T08:39:08.376Z,17.88
2024-05-09T08:41:39.521Z,16.38
2024-05-09T08:44:13.063Z,16.95
2024-05-09T08:46:41.592Z,16.30
2024-05-09T08:49:12.537Z,16.50
2024-05-09T08:51:40.692Z,15.50
2024-05-09T08:54:11.360Z,16.30
2024-05-09T08:56:40.614Z,16.83
2024-05-09T08:59:15.380Z,18.00
2024-05-09T09:01:43.874Z,16.67
2024-05-09T09:04:16.028Z,17.48
2024-05-09T09:06:45.086Z,15.18
2024-05-09T09:09:15.745Z,14.93
2024-05-09T09:11:43.772Z,15.27
2024-05-09T09:14:17.011Z,13.48
2024-05-09T09:16:46.120Z,15.98
2024-05-09T09:19:16.846Z,14.70
2024-05-09T09:21:44.983Z,17.60
2024-05-09T09:24:17.357Z,13.70
2024-05-09T09:26:46.399Z,17.83
2024-05-09T09:29:22.539Z,15.32
2024-05-09T09:31:58.515Z,14.00
2024-05-09T09:34:31.639Z,14.30
2024-05-09T09:37:05.373Z,15.02
2024-05-09T09:39:36.586Z,13.63
2024-05-09T09:42:04.899Z,15.05
2024-05-09T09:44:42.050Z,13.88
2024-05-09T09:47:10.520Z,13.82
2024-05-09T09:49:41.673Z,13.32
2024-05-09T09:52:11.393Z,13.60
2024-05-09T09:54:42.929Z,14.80
2024-05-09T09:57:10.967Z,13.70
2024-05-09T09:59:46.472Z,13.75
2024-05-09T10:02:14.646Z,12.93
2024-05-09T10:04:45.387Z,13.70
2024-05-09T10:07:14.363Z,16.20
2024-05-09T10:09:45.151Z,26.95
2024-05-09T10:12:13.928Z,20.07
2024-05-09T10:14:51.994Z,19.02
2024-05-09T10:17:19.978Z,17.98
2024-05-09T10:19:50.865Z,15.27
2024-05-09T10:22:27.893Z,18.27
2024-05-09T10:24:59.128Z,17.90
2024-05-09T10:27:27.627Z,17.17
2024-05-09T10:30:02.828Z,15.82
2024-05-09T10:32:38.221Z,17.85
2024-05-09T10:35:12.722Z,13.00
2024-05-09T10:37:40.687Z,13.93
2024-05-09T10:40:17.363Z,12.73
2024-05-09T10:42:50.917Z,12.65
2024-05-09T10:45:24.796Z,12.48
2024-05-09T10:47:52.996Z,12.27
2024-05-09T10:50:28.598Z,11.52
2024-05-09T10:53:00.120Z,11.70
2024-05-09T10:55:30.735Z,12.45
2024-05-09T10:57:58.668Z,11.73
2024-05-09T11:00:37.713Z,13.00
2024-05-09T11:03:06.263Z,15.18
2024-05-09T11:05:37.192Z,12.05
2024-05-09T11:08:05.690Z,13.50
2024-05-09T11:10:36.553Z,14.40
2024-05-09T11:13:04.640Z,12.60
2024-05-09T11:15:44.233Z,14.30
2024-05-09T11:18:24.744Z,12.52
2024-05-09T11:20:56.477Z,11.35
2024-05-09T11:23:26.166Z,12.20
2024-05-09T11:25:57.239Z,13.80
2024-05-09T11:28:25.257Z,13.18
2024-05-09T11:31:08.937Z,11.60
2024-05-09T11:33:38.180Z,11.68
2024-05-09T11:36:09.780Z,11.68
2024-05-09T11:38:37.777Z,12.68
2024-05-09T11:41:08.658Z,12.38
2024-05-09T11:43:36.722Z,11.93
2024-05-09T11:46:10.044Z,13.43
2024-05-09T11:48:38.372Z,11.25
2024-05-09T11:51:09.610Z,13.15
2024-05-09T11:53:37.663Z,12.10
2024-05-09T11:56:08.646Z,15.25
2024-05-09T11:58:39.665Z,11.65
2024-05-09T12:01:13.072Z,13.13
2024-05-09T12:03:41.077Z,12.27
2024-05-09T12:06:11.825Z,11.32
2024-05-09T12:08:39.756Z,11.07
2024-05-09T12:11:10.482Z,10.75
2024-05-09T12:13:38.424Z,11.43
2024-05-09T12:16:09.486Z,9.77
2024-05-09T12:18:40.313Z,11.25
2024-05-09T12:21:10.883Z,10.67
2024-05-09T12:23:38.771Z,9.85
2024-05-09T12:26:10.204Z,10.90
2024-05-09T12:28:38.184Z,11.60
2024-05-09T12:31:09.017Z,10.38
2024-05-09T12:33:39.636Z,8.67
2024-05-09T12:36:10.756Z,10.33
2024-05-09T12:38:38.666Z,9.75
2024-05-09T12:41:10.496Z,9.38
2024-05-09T12:43:38.463Z,9.52
2024-05-09T12:46:09.153Z,8.77
2024-05-09T12:48:40.110Z,8.02
2024-05-09T12:51:10.840Z,8.65
2024-05-09T12:53:39.545Z,8.20
2024-05-09T12:56:10.564Z,8.68
2024-05-09T12:58:38.721Z,7.47
2024-05-09T13:01:09.326Z,7.60
2024-05-09T13:03:40.296Z,8.07
2024-05-09T13:06:10.995Z,7.40
2024-05-09T13:08:38.972Z,8.45
2024-05-09T13:11:09.780Z,8.07
2024-05-09T13:13:37.833Z,8.10
2024-05-09T13:16:08.887Z,6.72
2024-05-09T13:18:39.721Z,7.18
2024-05-09T13:21:10.503Z,7.50
2024-05-09T13:23:38.468Z,7.23
2024-05-09T13:26:09.067Z,8.30
2024-05-09T13:28:36.977Z,8.57
2024-05-09T13:31:07.794Z,6.72
2024-05-09T13:33:35.862Z,7.77
2024-05-09T13:36:09.831Z,9.60
2024-05-09T13:38:37.709Z,9.13
2024-05-09T13:41:08.619Z,7.50
2024-05-09T13:43:36.550Z,7.30
2024-05-09T13:46:07.386Z,8.20
2024-05-09T13:48:35.371Z,8.43
2024-05-09T13:51:05.991Z,8.48
2024-05-09T13:53:39.216Z,9.52
2024-05-09T13:56:08.830Z,8.13
2024-05-09T13:58:39.466Z,8.35
2024-05-09T14:01:07.570Z,9.45
2024-05-09T14:03:38.452Z,8.70
2024-05-09T14:06:09.426Z,8.88
2024-05-09T14:08:44.484Z,9.85
2024-05-09T14:11:12.438Z,8.95
2024-05-09T14:13:42.979Z,8.07
2024-05-09T14:16:11.052Z,8.32
2024-05-09T14:18:41.704Z,8.73
2024-05-09T14:21:09.626Z,8.68
2024-05-09T14:23:40.167Z,10.23
2024-05-09T14:26:10.762Z,7.93
2024-05-09T14:28:41.311Z,8.82
2024-05-09T14:31:09.304Z,10.35
2024-05-09T14:33:40.157Z,10.43
2024-05-09T14:36:08.569Z,8.73
2024-05-09T14:38:39.261Z,8.15
2024-05-09T14:41:09.450Z,7.95
2024-05-09T14:43:42.874Z,7.80
2024-05-09T14:46:10.970Z,7.25
2024-05-09T14:48:42.491Z,7.75
2024-05-09T14:53:40.748Z,7.63
2024-05-09T14:56:09.582Z,186.10
2024-05-09T14:58:43.179Z,352.33
2024-05-09T15:01:13.928Z,511.77
2024-05-09T15:03:45.745Z,421.42
2024-05-09T15:06:14.203Z,349.80
2024-05-09T15:08:44.755Z,241.02
2024-05-09T15:11:12.682Z,154.80
2024-05-09T15:13:45.917Z,113.13
2024-05-09T15:16:13.903Z,95.35
2024-05-09T15:18:44.696Z,79.47
2024-05-09T15:21:12.717Z,54.25
2024-05-09T15:23:43.262Z,55.72
2024-05-09T15:26:11.380Z,47.17
2024-05-09T15:28:43.868Z,39.72
2024-05-09T15:31:14.667Z,26.25
2024-05-09T15:33:45.388Z,20.87
2024-05-09T15:36:13.517Z,19.13
2024-05-09T15:38:44.071Z,18.58
2024-05-09T15:41:12.037Z,14.95
2024-05-09T15:43:42.622Z,15.00
2024-05-09T15:46:10.542Z,10.30
2024-05-09T15:48:45.137Z,9.48
2024-05-09T15:51:13.189Z,8.40
2024-05-09T15:53:43.827Z,9.93
2024-05-09T15:56:12.063Z,8.88
2024-05-09T15:58:42.779Z,8.63
2024-05-09T16:01:15.142Z,7.70
2024-05-09T16:03:46.164Z,10.80
2024-05-09T16:06:17.028Z,6.93
2024-05-09T16:08:44.978Z,6.77
2024-05-09T16:11:17.095Z,6.05
2024-05-09T16:13:45.237Z,8.07
2024-05-09T16:16:15.831Z,7.53
2024-05-09T16:18:46.515Z,6.72
2024-05-09T16:21:17.145Z,7.50
2024-05-09T16:23:45.020Z,7.65
2024-05-09T16:26:15.585Z,5.95
2024-05-09T16:28:43.563Z,6.63
2024-05-09T16:31:14.104Z,7.65
2024-05-09T16:33:42.467Z,7.78
2024-05-09T16:36:15.835Z,8.02
2024-05-09T16:38:45.508Z,7.07
2024-05-09T16:41:16.343Z,6.63
2024-05-09T16:43:47.119Z,5.50
2024-05-09T16:46:15.462Z,5.70
2024-05-09T16:48:47.364Z,6.15
2024-05-09T16:51:18.068Z,8.60
2024-05-09T16:53:48.740Z,5.70
2024-05-09T16:56:16.728Z,5.32
2024-05-09T16:58:47.503Z,4.80
2024-05-09T17:01:15.521Z,5.97
2024-05-09T17:03:46.408Z,5.45
2024-05-09T17:06:17.242Z,6.03
2024-05-09T17:08:47.950Z,5.87
2024-05-09T17:11:18.540Z,6.30
2024-05-09T17:13:49.554Z,5.30
2024-05-09T17:16:18.291Z,6.40
2024-05-09T17:18:49.794Z,6.57
2024-05-09T17:21:17.758Z,5.07
2024-05-09T17:23:54.301Z,5.63
2024-05-09T17:26:22.644Z,5.50
2024-05-09T17:28:53.208Z,5.20
2024-05-09T17:31:23.839Z,5.32
2024-05-09T17:33:52.226Z,5.57
2024-05-09T17:36:23.117Z,7.50
2024-05-09T17:38:53.742Z,6.40
2024-05-09T17:41:24.382Z,210.25
2024-05-09T17:43:52.415Z,425.17
2024-05-09T17:46:23.460Z,503.65
2024-05-09T17:48:52.605Z,453.77
2024-05-09T17:51:23.632Z,345.60
2024-05-09T17:53:54.263Z,291.37
2024-05-09T17:56:24.941Z,204.95
2024-05-09T17:58:52.917Z,178.67
2024-05-09T18:01:27.619Z,241.70
2024-05-09T18:03:55.991Z,230.57
2024-05-09T18:06:26.617Z,285.77
2024-05-09T18:08:57.997Z,295.42
2024-05-09T18:11:28.792Z,325.75
2024-05-09T18:13:58.245Z,312.20
2024-05-09T18:16:29.103Z,288.65
2024-05-09T18:18:57.503Z,241.75
2024-05-09T18:21:28.569Z,207.00
2024-05-09T18:24:00.265Z,292.95
2024-05-09T18:26:31.141Z,523.03
2024-05-09T18:28:59.108Z,441.60
2024-05-09T18:31:30.186Z,422.70
2024-05-09T18:33:58.291Z,390.27
2024-05-09T18:36:28.925Z,300.83
2024-05-09T18:39:00.000Z,253.23
2024-05-09T18:41:30.749Z,390.88
2024-05-09T18:43:59.281Z,428.97
2024-05-09T18:46:30.348Z,554.42
2024-05-09T18:48:58.431Z,808.78
2024-05-09T18:51:31.697Z,589.30
2024-05-09T18:54:02.590Z,433.45
2024-05-09T18:56:33.180Z,338.17
2024-05-09T18:59:01.072Z,284.70
2024-05-09T19:01:31.855Z,245.77
2024-05-09T19:04:00.087Z,214.13
2024-05-09T19:06:30.873Z,175.93
2024-05-09T19:08:58.932Z,134.03
2024-05-09T19:11:32.239Z,119.90
2024-05-09T19:14:04.360Z,101.10
2024-05-09T19:16:35.055Z,68.68
2024-05-09T19:19:04.211Z,54.87
2024-05-09T19:21:35.036Z,44.05
2024-05-09T19:24:03.016Z,33.30
2024-05-09T19:26:36.347Z,23.92
2024-05-09T19:29:04.585Z,19.60
2024-05-09T19:31:35.111Z,17.67
2024-05-09T19:34:03.163Z,17.45
2024-05-09T19:36:33.862Z,16.73
2024-05-09T19:39:02.025Z,12.47
2024-05-09T19:41:32.572Z,14.32
2024-05-09T19:44:03.144Z,14.43
2024-05-09T19:46:33.998Z,11.80
2024-05-09T19:49:03.447Z,13.23
2024-05-09T19:51:34.242Z,13.82
2024-05-09T19:54:02.186Z,15.33
2024-05-09T19:56:33.444Z,14.60
2024-05-09T19:59:04.308Z,15.43
2024-05-09T20:01:35.079Z,14.03
2024-05-09T20:04:03.347Z,14.77
2024-05-09T20:06:34.707Z,15.93
2024-05-09T20:09:05.613Z,12.55
2024-05-09T20:11:38.528Z,14.13
2024-05-09T20:14:09.246Z,14.15
2024-05-09T20:16:39.826Z,14.80
2024-05-09T20:19:07.852Z,14.75
2024-05-09T20:21:38.464Z,16.77
2024-05-09T20:24:06.651Z,17.73
2024-05-09T20:26:37.293Z,15.73
2024-05-09T20:29:05.226Z,11.13
2024-05-09T20:31:38.967Z,14.70
2024-05-09T20:34:06.930Z,12.88
2024-05-09T20:36:37.571Z,14.77
2024-05-09T20:39:05.558Z,12.40
2024-05-09T20:41:37.187Z,12.77
2024-05-09T20:44:05.286Z,13.20
2024-05-09T20:46:38.516Z,14.18
2024-05-09T20:49:06.543Z,12.15
2024-05-09T20:51:37.151Z,16.48
2024-05-09T20:54:05.181Z,13.13
2024-05-09T20:56:35.738Z,18.15
2024-05-09T20:59:03.627Z,17.35
2024-05-09T21:01:34.313Z,14.45
2024-05-09T21:04:05.325Z,14.37
2024-05-09T21:06:36.085Z,16.25
2024-05-09T21:09:04.135Z,13.43
2024-05-09T21:11:34.712Z,21.63
2024-05-09T21:14:02.706Z,13.75
2024-05-09T21:16:34.160Z,14.93
2024-05-09T21:19:04.888Z,13.57
2024-05-09T21:21:42.098Z,12.10
2024-05-09T21:24:10.000Z,12.57
2024-05-09T21:26:40.665Z,14.10
2024-05-09T21:29:08.588Z,14.40
2024-05-09T21:31:39.250Z,14.80
2024-05-09T21:34:10.056Z,11.93
2024-05-09T21:36:40.824Z,12.57
2024-05-09T21:39:10.015Z,16.20
2024-05-09T21:41:40.610Z,10.43
2024-05-09T21:44:08.522Z,12.30
2024-05-09T21:46:39.115Z,12.32
2024-05-09T21:49:11.037Z,10.40
2024-05-09T21:51:41.978Z,8.60
2024-05-09T21:54:09.878Z,11.13
2024-05-09T21:56:40.537Z,11.15
2024-05-09T21:59:08.406Z,10.93
2024-05-09T22:01:40.111Z,9.43
2024-05-09T22:04:11.159Z,12.15
2024-05-09T22:06:41.836Z,10.98
2024-05-09T22:09:09.724Z,11.25
2024-05-09T22:11:40.344Z,8.52
2024-05-09T22:14:08.330Z,9.77
2024-05-09T22:16:43.236Z,13.10
2024-05-09T22:19:13.806Z,8.77
2024-05-09T22:21:44.510Z,10.60
2024-05-09T22:24:12.443Z,8.63
2024-05-09T22:26:43.001Z,10.27
2024-05-09T22:29:11.150Z,11.05
2024-05-09T22:31:41.794Z,8.43
2024-05-09T22:34:09.990Z,12.88
2024-05-09T22:36:43.306Z,19.15
2024-05-09T22:39:11.295Z,132.13
2024-05-09T22:41:43.234Z,204.27
2024-05-09T22:44:13.102Z,229.00
2024-05-09T22:46:43.755Z,237.82
2024-05-09T22:49:11.739Z,317.83
2024-05-09T22:51:45.159Z,297.17
2024-05-09T22:54:13.851Z,175.98
2024-05-09T22:56:44.414Z,183.38
2024-05-09T22:59:12.403Z,118.68
2024-05-09T23:01:43.328Z,87.82
2024-05-09T23:04:11.427Z,62.13
2024-05-09T23:06:46.540Z,51.33
2024-05-09T23:09:15.387Z,401.70
2024-05-09T23:11:46.217Z,414.60
2024-05-09T23:14:14.612Z,319.53
2024-05-09T23:16:48.219Z,331.13
2024-05-09T23:19:17.447Z,252.35
2024-05-09T23:21:50.836Z,265.80
2024-05-09T23:24:18.769Z,227.57
2024-05-09T23:26:49.999Z,147.68
2024-05-09T23:29:18.556Z,94.88
2024-05-09T23:31:49.203Z,78.43
2024-05-09T23:34:17.591Z,63.58
2024-05-09T23:36:51.443Z,49.55
2024-05-09T23:39:19.450Z,216.10
2024-05-09T23:41:50.988Z,397.50
2024-05-09T23:46:50.630Z,228.68
2024-05-09T23:49:20.160Z,265.00
2024-05-09T23:51:53.678Z,229.38
2024-05-09T23:54:21.639Z,142.45
2024-05-09T23:56:52.212Z,81.80
2024-05-09T23:59:20.195Z,56.38
